Time;durP1;ratioP1;P1;durP2;ratioP2;P2;SDS_P1;SDS_P2;PMS_P1;PMS_P2;Temp;Humidity;BMP_temperature;BMP_pressure;BME280_temperature;BME280_humidity;BME280_pressure;Samples;Min_cycle;Max_cycle;Signal;HPM_P1;HPM_P2
2022/03/10 00:00:53;;;;;;;;;35.75;31.75;;;;;10.19;52.38;101681.09;5074739;28;45239;-72
2022/03/10 00:03:18;;;;;;;;;40.25;34.00;;;;;9.76;52.02;101614.25;5078497;28;45286;-72
2022/03/10 00:05:44;;;;;;;;;45.75;36.75;;;;;10.13;52.11;101687.03;5072813;28;46435;-72
2022/03/10 00:08:09;;;;;;;;;36.00;33.00;;;;;9.88;52.38;101645.50;5075059;28;46193;-73
2022/03/10 00:10:35;;;;;;;;;46.25;34.00;;;;;10.06;52.28;101687.63;5076734;27;46241;-72
2022/03/10 00:13:00;;;;;;;;;37.50;33.50;;;;;10.02;52.58;101686.59;5067437;28;45639;-73
2022/03/10 00:15:25;;;;;;;;;37.75;30.75;;;;;9.70;52.86;101626.31;5077912;28;45231;-72
2022/03/10 00:17:52;;;;;;;;;34.75;30.25;;;;;9.70;52.29;101637.75;5069503;27;46017;-72
2022/03/10 00:20:18;;;;;;;;;38.25;33.75;;;;;9.91;52.09;101679.97;5071959;28;45439;-72
2022/03/10 00:22:48;;;;;;;;;35.00;32.75;;;;;9.79;52.51;101668.91;5074355;28;45358;-72
2022/03/10 00:25:15;;;;;;;;;43.25;33.75;;;;;9.84;53.20;101681.47;5078680;27;45679;-72
2022/03/10 00:27:41;;;;;;;;;37.75;33.75;;;;;9.52;52.85;101629.06;5070852;28;47268;-72
2022/03/10 00:30:07;;;;;;;;;37.50;32.75;;;;;9.68;52.01;101670.19;5072781;28;46192;-72
2022/03/10 00:32:33;;;;;;;;;42.25;35.50;;;;;9.71;53.99;101684.44;5073124;28;45405;-72
2022/03/10 00:34:58;;;;;;;;;44.00;34.25;;;;;9.27;53.39;101614.84;5078808;28;45556;-72
2022/03/10 00:37:24;;;;;;;;;37.25;33.75;;;;;9.68;52.78;101688.69;5073978;28;45326;-72
2022/03/10 00:39:49;;;;;;;;;37.25;31.75;;;;;9.40;53.14;101653.19;5078755;28;47048;-72
2022/03/10 00:42:14;;;;;;;;;36.00;32.25;;;;;9.59;52.95;101691.84;5068964;28;45344;-72
2022/03/10 00:44:39;;;;;;;;;31.50;28.75;;;;;9.55;54.07;101692.53;5078932;27;45741;-72
2022/03/10 00:47:05;;;;;;;;;44.00;36.25;;;;;9.51;53.52;101687.97;5071941;28;48053;-72
2022/03/10 00:49:30;;;;;;;;;42.50;35.00;;;;;9.49;52.53;101689.63;5077105;28;45363;-72
2022/03/10 00:51:55;;;;;;;;;45.75;35.75;;;;;9.30;53.44;101665.09;5070203;27;45323;-72
2022/03/10 00:54:21;;;;;;;;;40.50;33.00;;;;;9.32;53.56;101673.97;5078560;27;45333;-72
2022/03/10 00:56:46;;;;;;;;;42.75;36.75;;;;;9.13;53.26;101652.91;5077104;27;46393;-72
2022/03/10 00:59:11;;;;;;;;;48.50;33.50;;;;;9.30;54.77;101691.50;5079434;28;45264;-72
2022/03/10 01:01:37;;;;;;;;;38.50;33.00;;;;;8.39;54.43;101532.75;5066822;28;44795;-72
2022/03/10 01:04:02;;;;;;;;;39.75;34.25;;;;;9.17;54.76;101683.88;5079200;28;45448;-72
2022/03/10 01:06:28;;;;;;;;;42.75;38.00;;;;;9.19;54.52;101696.28;5072792;27;46256;-72
2022/03/10 01:08:53;;;;;;;;;45.25;36.75;;;;;9.04;54.90;101661.31;5066377;28;45217;-72
2022/03/10 01:11:18;;;;;;;;;36.50;34.00;;;;;8.98;54.79;101666.31;5076056;28;45294;-72
2022/03/10 01:13:44;;;;;;;;;37.50;33.25;;;;;8.61;54.96;101598.78;5079162;28;45553;-72
2022/03/10 01:16:09;;;;;;;;;39.75;36.25;;;;;9.11;54.96;101692.41;5074272;28;47239;-72
2022/03/10 01:18:35;;;;;;;;;34.25;30.75;;;;;8.92;54.88;101666.94;5077469;28;45311;-72
2022/03/10 01:21:00;;;;;;;;;35.75;34.00;;;;;8.79;55.44;101645.22;5070983;28;45331;-72
2022/03/10 01:23:25;;;;;;;;;43.50;34.00;;;;;8.74;54.90;101634.50;5070303;27;45490;-72
2022/03/10 01:25:51;;;;;;;;;40.50;34.75;;;;;8.70;54.89;101635.19;5073814;28;45996;-72
2022/03/10 01:28:16;;;;;;;;;31.25;25.00;;;;;8.95;53.49;101684.63;5077622;28;45759;-73
2022/03/10 01:30:42;;;;;;;;;39.50;34.00;;;;;9.00;55.30;101698.94;5078200;27;45382;-72
2022/03/10 01:33:08;;;;;;;;;39.00;34.00;;;;;8.59;54.81;101631.16;5077493;28;47153;-72
2022/03/10 01:35:34;;;;;;;;;33.00;26.75;;;;;8.60;55.30;101628.59;5077841;27;45321;-72
2022/03/10 01:37:59;;;;;;;;;40.25;33.25;;;;;8.95;54.90;101690.81;5073837;27;45378;-72
2022/03/10 01:40:25;;;;;;;;;50.00;34.50;;;;;8.83;55.19;101661.25;5078948;27;45764;-72
2022/03/10 01:42:50;;;;;;;;;38.50;34.00;;;;;8.74;54.45;101648.56;5073193;28;45333;-72
2022/03/10 01:45:16;;;;;;;;;40.00;33.00;;;;;8.88;54.36;101664.13;5075984;28;46984;-72
2022/03/10 01:47:42;;;;;;;;;41.25;32.75;;;;;8.82;54.78;101663.81;5073112;27;45378;-72
2022/03/10 01:50:10;;;;;;;;;35.50;32.25;;;;;8.63;55.50;101631.38;5081466;27;45291;-72
2022/03/10 01:52:37;;;;;;;;;42.75;35.50;;;;;8.69;54.82;101644.81;5073003;27;45477;-72
2022/03/10 01:55:03;;;;;;;;;32.75;32.50;;;;;8.88;54.78;101685.22;5081046;27;46219;-72
2022/03/10 01:57:29;;;;;;;;;38.00;33.75;;;;;8.86;55.81;101677.22;5079563;28;45351;-71
2022/03/10 01:59:55;;;;;;;;;39.75;34.50;;;;;8.86;54.43;101676.31;5078431;28;45584;-72
2022/03/10 02:02:20;;;;;;;;;40.75;34.00;;;;;8.85;54.76;101675.44;5070474;28;45411;-71
2022/03/10 02:04:45;;;;;;;;;44.25;35.00;;;;;8.84;55.49;101676.25;5091346;27;48331;-72
2022/03/10 02:10:16;;;;;;;;;35.25;30.75;;;;;8.59;54.98;101645.22;5070834;27;45263;-71
2022/03/10 02:10:18;;;;;;;;;39.75;34.00;;;;;8.79;55.23;101683.03;5075945;28;47081;-71
2022/03/10 02:12:48;;;;;;;;;33.75;32.25;;;;;8.18;54.49;101578.34;5073913;28;46157;-72
2022/03/10 02:18:19;;;;;;;;;40.75;33.00;;;;;8.60;55.12;101676.03;5070229;28;45372;-72
2022/03/10 02:20:45;;;;;;;;;40.00;31.50;;;;;8.40;55.20;101645.19;5085593;27;45379;-72
2022/03/10 02:23:11;;;;;;;;;39.00;34.50;;;;;8.57;56.32;101678.53;5080434;28;46155;-72
2022/03/10 02:25:38;;;;;;;;;41.75;34.25;;;;;8.41;56.06;101658.47;5080670;28;46283;-72
2022/03/10 02:28:04;;;;;;;;;38.25;28.50;;;;;8.37;56.24;101645.03;5073479;28;45235;-71
2022/03/10 02:30:31;;;;;;;;;41.25;33.00;;;;;8.32;56.08;101652.72;5071302;28;45332;-71
2022/03/10 02:32:57;;;;;;;;;39.50;32.00;;;;;8.36;56.08;101665.22;5074406;27;45249;-72
2022/03/10 02:35:23;;;;;;;;;34.75;27.25;;;;;8.40;56.12;101682.09;5080634;28;45603;-72
2022/03/10 02:37:49;;;;;;;;;44.75;35.75;;;;;8.28;56.49;101675.38;5075669;27;45923;-72
2022/03/10 02:40:14;;;;;;;;;47.75;35.00;;;;;8.32;56.97;101692.25;5080631;28;45327;-71
2022/03/10 02:42:40;;;;;;;;;46.25;38.00;;;;;8.20;57.04;101678.47;5076357;28;45389;-72
2022/03/10 02:45:06;;;;;;;;;40.25;36.25;;;;;7.95;56.06;101634.25;5080641;28;46598;-72
2022/03/10 02:47:32;;;;;;;;;46.50;37.75;;;;;8.17;55.83;101676.59;5087734;27;45356;-72
2022/03/10 02:49:58;;;;;;;;;46.75;37.00;;;;;8.19;56.81;101687.22;5077984;28;45412;-72
2022/03/10 02:52:24;;;;;;;;;39.50;33.75;;;;;8.02;55.59;101666.22;5071862;28;45225;-72
2022/03/10 02:54:50;;;;;;;;;36.50;32.75;;;;;7.76;55.70;101620.22;5080152;27;45348;-72
2022/03/10 02:57:15;;;;;;;;;38.75;34.75;;;;;8.22;55.64;101685.63;5087978;27;46188;-72
2022/03/10 02:59:42;;;;;;;;;42.75;31.75;;;;;8.12;56.10;101662.28;5113554;27;45621;-72
2022/03/10 03:02:07;;;;;;;;;40.00;29.00;;;;;8.11;54.54;101656.97;5070702;28;45957;-72
2022/03/10 03:04:33;;;;;;;;;39.50;31.75;;;;;8.30;55.76;101689.53;5080218;27;45261;-72
2022/03/10 03:06:59;;;;;;;;;32.00;29.75;;;;;8.22;55.16;101677.72;5071459;28;45508;-72
2022/03/10 03:09:24;;;;;;;;;41.00;34.75;;;;;8.01;55.41;101646.00;5071523;28;45374;-72
2022/03/10 03:11:50;;;;;;;;;32.25;29.50;;;;;8.10;53.97;101665.72;5074517;28;45284;-72
2022/03/10 03:14:16;;;;;;;;;41.25;30.75;;;;;8.30;54.30;101693.91;5073750;28;45344;-72
2022/03/10 03:16:43;;;;;;;;;35.50;30.50;;;;;8.29;54.91;101695.63;5084105;27;45626;-72
2022/03/10 03:19:09;;;;;;;;;35.25;32.00;;;;;8.32;54.51;101699.22;5073892;28;45285;-73
2022/03/10 03:21:34;;;;;;;;;38.00;31.25;;;;;8.30;54.69;101688.63;5070843;28;45867;-73
2022/03/10 03:24:00;;;;;;;;;29.25;27.50;;;;;8.29;54.48;101686.84;5073467;28;46127;-73
2022/03/10 03:26:25;;;;;;;;;38.00;31.25;;;;;8.05;54.06;101642.69;5070685;28;46029;-73
2022/03/10 03:28:50;;;;;;;;;36.00;31.00;;;;;8.41;54.38;101705.00;5073587;28;45308;-73
2022/03/10 03:31:16;;;;;;;;;34.75;31.00;;;;;8.40;53.71;101708.44;5079755;28;45154;-73
2022/03/10 03:33:42;;;;;;;;;41.00;28.50;;;;;8.33;53.98;101682.59;5073926;27;45305;-73
2022/03/10 03:36:07;;;;;;;;;40.00;32.00;;;;;8.41;54.93;101705.00;5079479;28;45200;-73
2022/03/10 03:38:33;;;;;;;;;31.75;27.75;;;;;8.45;53.99;101707.81;5075383;27;45413;-73
2022/03/10 03:40:59;;;;;;;;;30.00;27.00;;;;;8.43;53.85;101696.31;5074030;28;45434;-73
2022/03/10 03:43:24;;;;;;;;;40.75;31.25;;;;;8.41;54.20;101700.63;5076809;28;46151;-73
2022/03/10 03:45:50;;;;;;;;;37.00;31.00;;;;;8.50;54.30;101708.94;5075371;27;45798;-72
2022/03/10 03:48:15;;;;;;;;;32.25;29.25;;;;;8.51;53.56;101712.47;5074591;28;45306;-73
2022/03/10 03:50:41;;;;;;;;;33.00;30.75;;;;;8.44;53.39;101695.47;5076365;28;45672;-72
2022/03/10 03:53:06;;;;;;;;;41.25;30.50;;;;;8.46;54.16;101706.13;5074068;28;45422;-72
2022/03/10 03:55:32;;;;;;;;;32.00;29.00;;;;;8.25;53.67;101664.69;5075550;28;45537;-73
2022/03/10 03:57:57;;;;;;;;;31.00;28.25;;;;;8.38;53.68;101694.28;5079541;28;45369;-73
2022/03/10 04:00:22;;;;;;;;;32.75;29.50;;;;;8.25;53.55;101680.50;5074688;28;45433;-73
2022/03/10 04:02:48;;;;;;;;;28.00;27.25;;;;;8.48;53.93;101713.22;5068543;27;45650;-73
2022/03/10 04:05:13;;;;;;;;;31.75;30.50;;;;;8.20;54.18;101673.19;5073582;28;45383;-73
2022/03/10 04:07:39;;;;;;;;;35.00;27.75;;;;;8.44;54.25;101716.56;5067585;28;45249;-72
2022/03/10 04:10:06;;;;;;;;;52.25;42.25;;;;;8.43;53.92;101709.50;5074513;28;45380;-73
2022/03/10 04:12:32;;;;;;;;;31.50;30.00;;;;;8.29;53.09;101700.00;5070715;28;47586;-73
2022/03/10 04:14:58;;;;;;;;;37.25;32.00;;;;;8.39;54.36;101714.53;5075974;28;45356;-73
2022/03/10 04:17:24;;;;;;;;;33.00;28.50;;;;;8.38;53.99;101715.34;5071477;28;45530;-73
2022/03/10 04:19:49;;;;;;;;;37.75;33.50;;;;;8.36;54.56;101722.25;5076651;27;45280;-73
2022/03/10 04:22:14;;;;;;;;;39.50;31.00;;;;;8.32;53.92;101718.59;5088496;27;48625;-73
2022/03/10 04:24:40;;;;;;;;;40.50;32.50;;;;;8.17;54.85;101691.50;5076611;28;45476;-73
2022/03/10 04:27:05;;;;;;;;;86.00;71.67;;;;;7.99;54.35;101679.25;5073865;28;45315;-72
2022/03/10 04:29:30;;;;;;;;;65.25;49.25;;;;;8.09;55.05;101699.00;5077702;28;46062;-73
2022/03/10 04:31:56;;;;;;;;;112.00;93.50;;;;;8.25;54.89;101729.63;5079470;28;45445;-73
2022/03/10 04:34:21;;;;;;;;;143.00;132.75;;;;;8.08;53.84;101706.00;5094450;27;45378;-73
2022/03/10 04:36:46;;;;;;;;;65.75;49.25;;;;;8.13;54.28;101721.16;5076430;27;45265;-73
2022/03/10 04:39:12;;;;;;;;;51.75;39.00;;;;;8.19;55.08;101734.63;5076615;28;45509;-73
2022/03/10 04:41:37;;;;;;;;;46.00;36.25;;;;;8.01;55.43;101708.25;5077021;28;45657;-73
2022/03/10 04:44:03;;;;;;;;;33.25;32.00;;;;;7.99;54.69;101704.69;5076495;28;45449;-72
2022/03/10 04:46:29;;;;;;;;;39.25;32.00;;;;;7.83;55.37;101677.59;5069828;28;45732;-73
2022/03/10 04:48:54;;;;;;;;;136.33;112.33;;;;;8.14;55.41;101737.00;5078686;27;45348;-73
2022/03/10 04:51:20;;;;;;;;;63.75;49.25;;;;;7.88;54.75;101683.09;5070420;28;46298;-72
2022/03/10 04:53:46;;;;;;;;;35.00;33.50;;;;;8.04;53.71;101713.72;5078255;28;45372;-72
2022/03/10 04:56:11;;;;;;;;;33.50;28.75;;;;;7.71;55.83;101665.56;5074155;27;45286;-73
2022/03/10 04:58:37;;;;;;;;;29.75;29.00;;;;;7.63;55.39;101654.66;5079148;27;45302;-73
2022/03/10 05:01:02;;;;;;;;;30.25;28.75;;;;;7.81;55.44;101697.69;5074135;27;45607;-72
2022/03/10 05:03:27;;;;;;;;;35.25;34.00;;;;;7.90;54.08;101702.50;5066301;27;45349;-72
2022/03/10 05:05:53;;;;;;;;;51.50;39.00;;;;;8.05;55.25;101732.19;5074224;28;45269;-73
2022/03/10 05:08:18;;;;;;;;;37.00;34.50;;;;;7.76;55.59;101674.59;5067624;27;45359;-73
2022/03/10 05:10:43;;;;;;;;;42.00;38.00;;;;;7.96;55.14;101715.97;5076983;28;45321;-73
2022/03/10 05:13:09;;;;;;;;;52.25;38.25;;;;;7.90;55.61;101702.50;5077773;28;45347;-72
2022/03/10 05:15:34;;;;;;;;;31.50;27.25;;;;;7.98;56.36;101723.91;5071887;28;45366;-73
2022/03/10 05:18:02;;;;;;;;;34.50;34.25;;;;;7.95;56.08;101723.75;5073465;27;45263;-73
2022/03/10 05:20:29;;;;;;;;;63.50;51.75;;;;;7.76;55.58;101693.91;5073997;28;47256;-73
2022/03/10 05:22:57;;;;;;;;;41.25;38.00;;;;;7.24;55.38;101608.84;5081374;28;45300;-72
2022/03/10 05:25:31;;;;;;;;;53.00;41.00;;;;;7.87;55.24;101720.78;5081909;28;45233;-72
2022/03/10 05:27:56;;;;;;;;;52.25;40.75;;;;;7.75;55.11;101706.97;5080136;28;46338;-73
2022/03/10 05:30:22;;;;;;;;;35.50;33.75;;;;;7.53;55.91;101671.69;5074635;28;48329;-73
2022/03/10 05:32:48;;;;;;;;;44.50;35.75;;;;;7.79;56.01;101720.38;5075910;28;45425;-73
2022/03/10 05:35:15;;;;;;;;;60.00;48.00;;;;;7.77;56.71;101719.41;5081911;27;45476;-73
2022/03/10 05:37:41;;;;;;;;;67.75;52.75;;;;;7.74;56.92;101729.78;5077653;28;45537;-73
2022/03/10 05:40:08;;;;;;;;;71.75;54.25;;;;;7.72;56.11;101726.16;5081469;28;45449;-73
2022/03/10 05:42:36;;;;;;;;;88.33;72.67;;;;;7.20;55.85;101636.72;5073137;28;45182;-73
2022/03/10 05:45:02;;;;;;;;;48.25;39.25;;;;;7.50;56.54;101696.94;5081680;27;45169;-73
2022/03/10 05:47:27;;;;;;;;;35.00;29.25;;;;;7.57;57.04;101717.50;5071727;28;45869;-73
2022/03/10 05:49:52;;;;;;;;;64.50;49.75;;;;;7.56;55.38;101716.59;5081356;27;45162;-73
2022/03/10 05:52:18;;;;;;;;;37.25;33.50;;;;;7.53;55.78;101719.03;5072152;28;45291;-74
2022/03/10 05:54:43;;;;;;;;;42.50;36.50;;;;;7.51;55.60;101720.72;5081320;27;45612;-73
2022/03/10 05:57:08;;;;;;;;;45.75;38.50;;;;;7.48;57.46;101714.38;5068742;27;45403;-73
2022/03/10 05:59:34;;;;;;;;;57.75;43.00;;;;;7.44;56.67;101717.69;5080041;28;47542;-73
2022/03/10 06:01:59;;;;;;;;;67.75;52.00;;;;;7.45;56.58;101712.50;5071364;28;45702;-72
2022/03/10 06:04:25;;;;;;;;;56.75;44.75;;;;;7.58;56.09;101743.84;5073759;28;45703;-72
2022/03/10 06:06:51;;;;;;;;;70.25;52.25;;;;;7.55;57.11;101733.19;5071864;28;45331;-73
2022/03/10 06:09:16;;;;;;;;;68.50;51.50;;;;;7.31;57.39;101697.72;5074040;28;46134;-73
2022/03/10 06:11:43;;;;;;;;;85.67;66.00;;;;;7.54;56.86;101725.22;5077927;28;45382;-72
2022/03/10 06:14:10;;;;;;;;;105.00;83.33;;;;;7.47;56.94;101724.00;5074408;28;45479;-73
2022/03/10 06:16:35;;;;;;;;;97.67;72.00;;;;;7.39;57.02;101709.53;5079884;28;45401;-73
2022/03/10 06:19:00;;;;;;;;;137.00;115.00;;;;;7.15;57.72;101669.75;5074418;28;46758;-74
2022/03/10 06:21:28;;;;;;;;;82.00;62.67;;;;;7.46;56.40;101735.34;5080849;28;45333;-74
2022/03/10 06:23:53;;;;;;;;;78.00;61.33;;;;;7.39;57.66;101725.31;5074354;28;45347;-72
2022/03/10 06:26:19;;;;;;;;;57.75;46.75;;;;;7.39;57.72;101720.97;5073646;28;47152;-72
2022/03/10 06:28:44;;;;;;;;;52.75;42.50;;;;;6.97;56.69;101645.09;5079595;28;47971;-72
2022/03/10 06:31:10;;;;;;;;;62.75;50.25;;;;;7.39;57.80;101720.06;5073643;28;45434;-72
2022/03/10 06:33:36;;;;;;;;;47.00;39.75;;;;;7.46;57.98;101732.72;5074785;28;45364;-73
2022/03/10 06:36:03;;;;;;;;;47.75;40.00;;;;;7.45;58.38;101740.50;5081981;27;45971;-73
2022/03/10 06:38:28;;;;;;;;;67.75;54.00;;;;;7.37;58.10;101727.00;5076370;28;47476;-72
2022/03/10 06:40:54;;;;;;;;;55.50;44.25;;;;;7.20;56.62;101704.13;5076123;27;45259;-73
2022/03/10 06:43:19;;;;;;;;;79.00;59.25;;;;;6.69;58.22;101609.47;5076894;28;45192;-72
2022/03/10 06:45:44;;;;;;;;;59.25;48.75;;;;;7.28;58.26;101710.69;5073013;28;46402;-71
2022/03/10 06:48:10;;;;;;;;;47.25;41.25;;;;;7.25;57.49;101716.69;5075084;28;45466;-72
2022/03/10 06:50:36;;;;;;;;;66.25;51.00;;;;;7.03;56.78;101672.63;5077142;27;45365;-73
2022/03/10 06:53:02;;;;;;;;;51.50;42.50;;;;;7.31;57.13;101713.50;5074439;28;45283;-72
2022/03/10 06:55:28;;;;;;;;;60.50;45.25;;;;;7.17;58.71;101687.41;5075333;28;46058;-73
2022/03/10 06:57:55;;;;;;;;;57.75;48.25;;;;;7.38;56.56;101727.03;5075826;28;45769;-72
2022/03/10 07:00:21;;;;;;;;;57.50;45.00;;;;;7.47;59.26;101747.66;5078151;28;45447;-72
2022/03/10 07:02:47;;;;;;;;;53.50;45.00;;;;;7.40;58.37;101732.41;5069619;27;45341;-72
2022/03/10 07:05:13;;;;;;;;;56.50;44.75;;;;;7.52;59.50;101750.53;5066959;28;45430;-72
2022/03/10 07:07:38;;;;;;;;;49.50;39.25;;;;;7.54;57.57;101752.44;5071171;27;46771;-73
2022/03/10 07:10:04;;;;;;;;;47.50;37.00;;;;;7.33;57.72;101714.47;5077241;28;45425;-72
2022/03/10 07:12:33;;;;;;;;;41.75;38.00;;;;;7.52;57.06;101740.91;5072441;28;45306;-72
2022/03/10 07:14:58;;;;;;;;;46.75;37.75;;;;;7.74;57.76;101761.34;5077654;28;47710;-72
2022/03/10 07:17:23;;;;;;;;;42.00;36.00;;;;;7.77;58.24;101748.34;5073092;28;45485;-72
2022/03/10 07:19:49;;;;;;;;;104.67;84.33;;;;;7.91;57.67;101748.16;5078375;28;45409;-72
2022/03/10 07:22:18;;;;;;;;;58.50;45.50;;;;;8.11;58.00;101763.19;5074524;27;45268;-72
2022/03/10 07:24:44;;;;;;;;;42.00;34.00;;;;;8.25;58.25;101770.03;5078042;28;45295;-72
2022/03/10 07:27:10;;;;;;;;;41.50;35.75;;;;;7.94;56.29;101686.00;5074752;28;47311;-72
2022/03/10 07:29:35;;;;;;;;;41.50;34.50;;;;;8.51;55.81;101768.75;5078630;28;45323;-73
2022/03/10 07:32:00;;;;;;;;;38.25;35.00;;;;;8.45;56.35;101730.63;5076267;28;45229;-73
2022/03/10 07:34:26;;;;;;;;;39.75;35.50;;;;;8.50;56.13;101716.84;5077979;28;45252;-72
2022/03/10 07:36:51;;;;;;;;;38.50;33.25;;;;;8.91;55.45;101767.97;5074426;27;45352;-72
2022/03/10 07:39:16;;;;;;;;;57.50;44.75;;;;;8.82;55.79;101730.66;5075813;28;45197;-72
2022/03/10 07:41:42;;;;;;;;;56.00;40.25;;;;;9.10;55.38;101755.63;5070716;28;45491;-72
2022/03/10 07:44:07;;;;;;;;;48.25;39.00;;;;;9.25;55.19;101771.28;5080359;27;45541;-72
2022/03/10 07:46:32;;;;;;;;;37.75;35.00;;;;;9.37;54.50;101766.53;5074249;28;47063;-73
2022/03/10 07:48:58;;;;;;;;;71.25;53.00;;;;;9.40;54.32;101749.09;5079412;28;45329;-73
2022/03/10 07:51:24;;;;;;;;;57.25;43.75;;;;;9.40;54.19;101737.63;5076132;28;45634;-73
2022/03/10 07:53:49;;;;;;;;;64.75;48.75;;;;;9.58;54.47;101756.94;5078614;28;46267;-73
2022/03/10 07:56:15;;;;;;;;;68.25;53.25;;;;;9.52;54.41;101726.72;5076644;28;48047;-73
2022/03/10 07:58:40;;;;;;;;;59.25;47.00;;;;;9.80;53.66;101768.41;5066762;27;45405;-72
2022/03/10 08:01:05;;;;;;;;;55.25;43.50;;;;;9.82;54.17;101749.16;5071164;28;45403;-72
2022/03/10 08:03:31;;;;;;;;;80.25;58.75;;;;;9.88;53.85;101742.31;5076601;28;46107;-72
2022/03/10 08:05:56;;;;;;;;;72.75;55.25;;;;;10.12;53.66;101769.78;5072531;28;48139;-72
2022/03/10 08:08:22;;;;;;;;;60.25;49.25;;;;;9.99;53.32;101741.94;5080159;27;45457;-72
2022/03/10 08:10:48;;;;;;;;;44.25;37.25;;;;;10.06;53.11;101732.53;5076913;27;45289;-72
2022/03/10 08:13:13;;;;;;;;;59.50;45.75;;;;;10.25;53.21;101763.25;5068440;28;46192;-72
2022/03/10 08:15:40;;;;;;;;;43.50;34.75;;;;;10.17;53.42;101752.38;5079092;28;46103;-72
2022/03/10 08:18:06;;;;;;;;;40.75;34.50;;;;;10.12;53.38;101764.50;5070771;27;45542;-72
2022/03/10 08:20:31;;;;;;;;;47.25;39.75;;;;;10.31;53.23;101776.78;5075294;28;45322;-72
2022/03/10 08:22:57;;;;;;;;;46.50;40.25;;;;;10.37;52.84;101778.75;5087733;27;46685;-72
2022/03/10 08:25:22;;;;;;;;;39.25;35.25;;;;;10.39;53.03;101777.06;5078955;28;45295;-72
2022/03/10 08:27:48;;;;;;;;;47.50;37.25;;;;;10.25;53.02;101737.75;5073111;28;45428;-72
2022/03/10 08:30:15;;;;;;;;;29.25;26.25;;;;;10.48;53.46;101774.81;5079308;28;45497;-72
2022/03/10 08:32:44;;;;;;;;;46.75;32.50;;;;;10.32;52.18;101716.88;5073737;28;45356;-70
2022/03/10 08:35:10;;;;;;;;;38.50;34.25;;;;;10.67;52.34;101764.13;5079157;28;46256;-71
2022/03/10 08:37:36;;;;;;;;;43.50;36.00;;;;;10.75;52.08;101757.41;5086104;27;45790;-72
2022/03/10 08:40:01;;;;;;;;;34.50;31.25;;;;;10.78;51.54;101743.34;5078804;27;45491;-72
2022/03/10 08:42:27;;;;;;;;;41.50;32.75;;;;;10.77;52.21;101738.94;5069043;28;45927;-72
2022/03/10 08:44:52;;;;;;;;;40.50;35.00;;;;;10.95;52.04;101771.38;5078751;27;45508;-72
2022/03/10 08:47:18;;;;;;;;;33.75;30.75;;;;;11.02;51.87;101764.56;5076738;28;45420;-72
2022/03/10 08:49:43;;;;;;;;;37.00;32.75;;;;;11.04;51.42;101756.72;5078990;27;45763;-73
2022/03/10 08:52:09;;;;;;;;;42.25;37.75;;;;;11.06;51.71;101755.00;5070205;27;45467;-72
2022/03/10 08:54:34;;;;;;;;;32.75;30.75;;;;;10.97;51.76;101719.41;5078422;27;46188;-72
2022/03/10 08:56:59;;;;;;;;;38.00;29.00;;;;;11.29;52.06;101755.88;5066715;28;45386;-73
2022/03/10 08:59:25;;;;;;;;;34.00;30.75;;;;;11.30;51.54;101745.34;5094901;27;45398;-71
2022/03/10 09:01:50;;;;;;;;;38.50;31.75;;;;;11.44;52.08;101756.41;5072547;27;45586;-72
2022/03/10 09:04:16;;;;;;;;;31.75;29.00;;;;;11.48;51.53;101738.88;5070327;28;45326;-71
2022/03/10 09:06:41;;;;;;;;;36.75;32.25;;;;;11.59;51.05;101753.41;5074522;28;45486;-72
2022/03/10 09:09:07;;;;;;;;;34.25;30.00;;;;;11.68;50.31;101747.53;5070221;28;45366;-72
2022/03/10 09:11:33;;;;;;;;;40.50;30.50;;;;;11.58;50.43;101715.44;5078162;28;45358;-72
2022/03/10 09:13:59;;;;;;;;;38.00;33.50;;;;;11.94;51.28;101749.38;5069752;28;45303;-72
2022/03/10 09:16:25;;;;;;;;;34.75;31.25;;;;;12.04;50.59;101762.09;5078197;28;45426;-72
2022/03/10 09:18:50;;;;;;;;;34.00;27.25;;;;;12.06;49.85;101719.75;5070215;27;45437;-72
2022/03/10 09:21:17;;;;;;;;;42.25;36.00;;;;;12.23;49.10;101717.63;5076470;28;45430;-72
2022/03/10 09:23:42;;;;;;;;;45.75;33.00;;;;;12.61;48.67;101752.44;5071091;27;45315;-72
2022/03/10 09:26:08;;;;;;;;;24.75;22.75;;;;;12.56;49.70;101712.50;5077908;28;45304;-72
2022/03/10 09:28:33;;;;;;;;;30.25;29.25;;;;;12.92;48.33;101748.97;5072659;27;45422;-72
2022/03/10 09:30:59;;;;;;;;;34.50;28.50;;;;;12.76;47.49;101697.19;5078012;28;45441;-72
2022/03/10 09:33:24;;;;;;;;;28.50;25.25;;;;;12.68;47.52;101657.16;5073331;28;45924;-72
2022/03/10 09:35:50;;;;;;;;;34.25;30.75;;;;;12.89;47.80;101680.78;5062864;28;45448;-73
2022/03/10 09:38:17;;;;;;;;;29.25;27.00;;;;;13.23;48.42;101729.53;5073776;28;45355;-72
2022/03/10 09:40:42;;;;;;;;;29.25;28.25;;;;;13.32;48.37;101744.84;5070184;28;46042;-72
2022/03/10 09:43:09;;;;;;;;;28.75;27.00;;;;;13.33;47.89;101741.31;5070870;28;48350;-72
2022/03/10 09:45:36;;;;;;;;;28.00;24.00;;;;;13.20;47.24;101717.06;5076980;27;45422;-73
2022/03/10 09:48:02;;;;;;;;;33.75;30.50;;;;;13.34;46.80;101716.59;5069684;28;45396;-73
2022/03/10 09:50:27;;;;;;;;;30.00;24.25;;;;;13.44;47.09;101734.56;5074630;28;47365;-72
2022/03/10 09:52:53;;;;;;;;;31.25;24.75;;;;;13.33;47.36;101685.56;5069455;27;45312;-72
2022/03/10 09:55:19;;;;;;;;;27.75;25.75;;;;;13.58;46.73;101703.97;5074548;27;45480;-73
2022/03/10 09:57:46;;;;;;;;;31.00;26.00;;;;;13.92;46.90;101727.84;5069833;28;45407;-72
2022/03/10 10:00:14;;;;;;;;;27.00;24.25;;;;;14.12;46.53;101731.91;5075229;27;45336;-72
2022/03/10 10:02:41;;;;;;;;;33.25;30.00;;;;;14.17;46.83;101700.09;5068123;28;46900;-72
2022/03/10 10:05:24;;;;;;;;;23.00;21.50;;;;;14.60;45.74;101726.00;5078236;28;45165;-72
2022/03/10 10:08:08;;;;;;;;;29.00;24.50;;;;;14.88;46.10;101722.19;5070320;28;45299;-72
2022/03/10 10:10:35;;;;;;;;;45.50;38.75;;;;;15.06;44.07;101713.66;5080404;28;45272;-72
2022/03/10 10:13:05;;;;;;;;;25.00;24.50;;;;;15.39;44.83;101710.78;5080884;28;47514;-73
2022/03/10 10:15:39;;;;;;;;;38.50;31.00;;;;;15.70;44.36;101707.81;5080822;28;45444;-72
2022/03/10 10:18:06;;;;;;;;;27.75;26.00;;;;;15.60;43.45;101640.09;5081829;27;45458;-72
2022/03/10 10:20:44;;;;;;;;;27.25;26.50;;;;;16.40;44.07;101718.75;5073762;28;46779;-72
2022/03/10 10:23:21;;;;;;;;;25.25;23.00;;;;;16.75;44.04;101719.28;5073447;28;45532;-72
2022/03/10 10:25:52;;;;;;;;;24.33;23.67;;;;;17.00;43.69;101709.84;5080529;27;45297;-72
2022/03/10 10:28:27;;;;;;;;;24.33;24.00;;;;;17.09;42.58;101698.38;5075947;27;45369;-72
2022/03/10 10:31:17;;;;;;;;;24.33;21.00;;;;;16.83;40.90;101625.94;5080652;28;45446;-72
2022/03/10 10:34:09;;;;;;;;;21.33;17.67;;;;;17.30;42.43;101692.38;5080000;28;47611;-72
2022/03/10 10:36:37;;;;;;;;;22.00;19.00;;;;;17.50;42.77;101669.41;5071491;27;45417;-72
2022/03/10 10:39:09;;;;;;;;;18.00;17.67;;;;;17.76;42.89;101674.13;5080067;28;45344;-72
2022/03/10 10:41:36;;;;;;;;;18.33;17.00;;;;;18.10;41.49;101689.59;5071480;28;45494;-73
2022/03/10 10:44:05;;;;;;;;;18.33;17.33;;;;;18.34;39.84;101685.28;5080091;28;48164;-72
2022/03/10 10:46:44;;;;;;;;;21.33;18.00;;;;;18.21;38.18;101670.94;5081067;27;45745;-72
2022/03/10 10:49:22;;;;;;;;;13.00;12.33;;;;;18.41;39.02;101681.78;5069243;28;45257;-73
2022/03/10 10:51:50;;;;;;;;;14.67;14.67;;;;;18.59;38.70;101664.91;5077406;28;45519;-73
2022/03/10 10:54:19;;;;;;;;;18.00;17.67;;;;;18.84;40.09;101670.41;5081106;27;45324;-72
2022/03/10 10:56:53;;;;;;;;;15.00;15.00;;;;;18.99;40.28;101641.91;5075422;28;45312;-73
2022/03/10 10:59:38;;;;;;;;;13.00;13.00;;;;;19.25;38.59;101662.53;5074716;28;45359;-73
2022/03/10 11:02:08;;;;;;;;;15.33;13.33;;;;;19.17;37.63;101656.25;5071703;28;45315;-73
2022/03/10 11:04:34;;;;;;;;;16.67;15.67;;;;;19.45;38.28;101657.19;5071988;28;48253;-73
2022/03/10 11:06:59;;;;;;;;;20.00;16.33;;;;;19.54;38.56;101630.38;5076846;28;45643;-72
2022/03/10 11:09:25;;;;;;;;;18.67;16.33;;;;;19.47;36.11;101644.69;5081034;28;45343;-72
2022/03/10 11:11:51;;;;;;;;;17.00;16.00;;;;;19.62;35.88;101649.16;5077376;27;45683;-72
2022/03/10 11:14:16;;;;;;;;;17.00;16.00;;;;;19.58;35.71;101596.44;5073920;28;45276;-72